sensor_id;sensor_type;location;lat;lon;timestamp;pressure;altitude;pressure_sealevel;temperature;humidity
15880;BME280;61999;51.514;14.614;2023-06-22T00:01:27;100231.13;;;17.27;46.57
15880;BME280;61999;51.514;14.614;2023-06-22T00:03:55;100247.75;;;17.21;46.81
15880;BME280;61999;51.514;14.614;2023-06-22T00:06:23;100243.69;;;17.08;47.66
15880;BME280;61999;51.514;14.614;2023-06-22T00:08:51;100245.34;;;17.09;47.07
15880;BME280;61999;51.514;14.614;2023-06-22T00:11:19;100244.72;;;17.07;46.84
15880;BME280;61999;51.514;14.614;2023-06-22T00:13:47;100253.84;;;17.05;46.99
15880;BME280;61999;51.514;14.614;2023-06-22T00:16:16;100251.34;;;17.03;46.91
15880;BME280;61999;51.514;14.614;2023-06-22T00:18:45;100244.34;;;17.02;47.41
15880;BME280;61999;51.514;14.614;2023-06-22T00:21:13;100247.97;;;17.01;47.34
15880;BME280;61999;51.514;14.614;2023-06-22T00:23:41;100244.66;;;16.99;47.46
15880;BME280;61999;51.514;14.614;2023-06-22T00:26:10;100241.31;;;16.97;46.97
15880;BME280;61999;51.514;14.614;2023-06-22T00:28:38;100236.31;;;16.94;46.94
15880;BME280;61999;51.514;14.614;2023-06-22T00:31:06;100246.47;;;16.90;47.59
15880;BME280;61999;51.514;14.614;2023-06-22T00:33:34;100255.59;;;16.88;46.96
15880;BME280;61999;51.514;14.614;2023-06-22T00:36:05;100250.59;;;16.85;47.21
15880;BME280;61999;51.514;14.614;2023-06-22T00:38:34;100261.03;;;16.78;48.01
15880;BME280;61999;51.514;14.614;2023-06-22T00:41:07;100261.19;;;16.77;47.83
15880;BME280;61999;51.514;14.614;2023-06-22T00:43:34;100268.50;;;16.74;47.66
15880;BME280;61999;51.514;14.614;2023-06-22T00:46:03;100273.44;;;16.69;47.92
15880;BME280;61999;51.514;14.614;2023-06-22T00:48:31;100265.25;;;16.63;48.42
15880;BME280;61999;51.514;14.614;2023-06-22T00:50:59;100275.59;;;16.66;47.92
15880;BME280;61999;51.514;14.614;2023-06-22T00:53:29;100273.25;;;16.63;48.28
15880;BME280;61999;51.514;14.614;2023-06-22T00:56:01;100274.34;;;16.52;48.60
15880;BME280;61999;51.514;14.614;2023-06-22T00:58:30;100277.00;;;16.52;48.33
15880;BME280;61999;51.514;14.614;2023-06-22T01:00:58;100279.94;;;16.49;48.44
15880;BME280;61999;51.514;14.614;2023-06-22T01:03:27;100278.59;;;16.45;48.33
15880;BME280;61999;51.514;14.614;2023-06-22T01:06:02;100279.41;;;16.45;48.81
15880;BME280;61999;51.514;14.614;2023-06-22T01:08:44;100280.56;;;16.43;48.39
15880;BME280;61999;51.514;14.614;2023-06-22T01:11:20;100281.19;;;16.37;48.61
15880;BME280;61999;51.514;14.614;2023-06-22T01:13:57;100283.16;;;16.35;48.91
15880;BME280;61999;51.514;14.614;2023-06-22T01:16:31;100283.06;;;16.18;49.71
15880;BME280;61999;51.514;14.614;2023-06-22T01:19:22;100283.06;;;16.18;49.63
15880;BME280;61999;51.514;14.614;2023-06-22T01:21:56;100274.38;;;16.16;48.96
15880;BME280;61999;51.514;14.614;2023-06-22T01:24:33;100280.53;;;16.17;49.30
15880;BME280;61999;51.514;14.614;2023-06-22T01:27:27;100282.66;;;16.13;48.99
15880;BME280;61999;51.514;14.614;2023-06-22T01:30:03;100291.63;;;16.12;48.95
15880;BME280;61999;51.514;14.614;2023-06-22T01:32:34;100298.25;;;16.08;49.34
15880;BME280;61999;51.514;14.614;2023-06-22T01:35:07;100282.41;;;16.06;49.41
15880;BME280;61999;51.514;14.614;2023-06-22T01:37:38;100281.75;;;16.04;49.39
15880;BME280;61999;51.514;14.614;2023-06-22T01:40:08;100275.88;;;16.01;49.04
15880;BME280;61999;51.514;14.614;2023-06-22T01:42:37;100284.88;;;16.00;48.98
15880;BME280;61999;51.514;14.614;2023-06-22T01:45:10;100280.69;;;15.97;49.24
15880;BME280;61999;51.514;14.614;2023-06-22T01:47:39;100275.66;;;15.94;48.98
15880;BME280;61999;51.514;14.614;2023-06-22T01:50:08;100278.50;;;15.93;49.31
15880;BME280;61999;51.514;14.614;2023-06-22T01:52:37;100278.09;;;15.88;50.04
15880;BME280;61999;51.514;14.614;2023-06-22T01:55:05;100281.72;;;15.87;49.74
15880;BME280;61999;51.514;14.614;2023-06-22T01:57:35;100275.75;;;15.84;49.34
15880;BME280;61999;51.514;14.614;2023-06-22T02:00:09;100278.53;;;15.83;49.49
15880;BME280;61999;51.514;14.614;2023-06-22T02:02:49;100283.44;;;15.78;49.71
15880;BME280;61999;51.514;14.614;2023-06-22T02:05:19;100290.06;;;15.74;50.06
15880;BME280;61999;51.514;14.614;2023-06-22T02:07:56;100278.50;;;15.65;50.75
15880;BME280;61999;51.514;14.614;2023-06-22T02:10:28;100288.75;;;15.60;50.67
15880;BME280;61999;51.514;14.614;2023-06-22T02:12:58;100279.78;;;15.61;50.23
15880;BME280;61999;51.514;14.614;2023-06-22T02:15:28;100279.78;;;15.61;50.27
15880;BME280;61999;51.514;14.614;2023-06-22T02:17:57;100279.13;;;15.59;50.13
15880;BME280;61999;51.514;14.614;2023-06-22T02:20:25;100280.06;;;15.58;50.28
15880;BME280;61999;51.514;14.614;2023-06-22T02:22:53;100282.06;;;15.56;50.17
15880;BME280;61999;51.514;14.614;2023-06-22T02:25:21;100278.72;;;15.54;50.84
15880;BME280;61999;51.514;14.614;2023-06-22T02:27:49;100285.03;;;15.53;50.58
15880;BME280;61999;51.514;14.614;2023-06-22T02:30:17;100286.00;;;15.52;50.76
15880;BME280;61999;51.514;14.614;2023-06-22T02:32:46;100292.44;;;15.49;50.82
15880;BME280;61999;51.514;14.614;2023-06-22T02:35:14;100294.25;;;15.49;50.75
15880;BME280;61999;51.514;14.614;2023-06-22T02:37:42;100281.13;;;15.47;50.57
15880;BME280;61999;51.514;14.614;2023-06-22T02:40:11;100288.25;;;15.47;50.55
15880;BME280;61999;51.514;14.614;2023-06-22T02:42:40;100291.22;;;15.44;50.97
15880;BME280;61999;51.514;14.614;2023-06-22T02:45:08;100296.69;;;15.42;50.83
15880;BME280;61999;51.514;14.614;2023-06-22T02:47:37;100292.78;;;15.36;51.53
15880;BME280;61999;51.514;14.614;2023-06-22T02:50:07;100291.81;;;15.37;51.23
15880;BME280;61999;51.514;14.614;2023-06-22T02:52:36;100298.84;;;15.29;51.96
15880;BME280;61999;51.514;14.614;2023-06-22T02:55:07;100287.38;;;15.28;51.56
15880;BME280;61999;51.514;14.614;2023-06-22T02:57:35;100289.34;;;15.26;51.40
15880;BME280;61999;51.514;14.614;2023-06-22T03:00:05;100284.19;;;15.25;51.34
15880;BME280;61999;51.514;14.614;2023-06-22T03:02:43;100285.31;;;15.22;51.61
15880;BME280;61999;51.514;14.614;2023-06-22T03:05:14;100294.13;;;15.23;51.77
15880;BME280;61999;51.514;14.614;2023-06-22T03:07:45;100290.22;;;15.17;51.96
15880;BME280;61999;51.514;14.614;2023-06-22T03:10:15;100295.84;;;15.14;52.40
15880;BME280;61999;51.514;14.614;2023-06-22T03:12:43;100300.41;;;15.12;52.27
15880;BME280;61999;51.514;14.614;2023-06-22T03:15:12;100302.81;;;15.15;52.06
15880;BME280;61999;51.514;14.614;2023-06-22T03:17:40;100298.50;;;15.14;51.98
15880;BME280;61999;51.514;14.614;2023-06-22T03:20:10;100295.53;;;15.17;51.90
15880;BME280;61999;51.514;14.614;2023-06-22T03:22:41;100299.84;;;15.18;52.21
15880;BME280;61999;51.514;14.614;2023-06-22T03:25:10;100300.84;;;15.17;52.21
15880;BME280;61999;51.514;14.614;2023-06-22T03:27:40;100300.16;;;15.15;51.98
15880;BME280;61999;51.514;14.614;2023-06-22T03:30:11;100287.28;;;15.10;53.03
15880;BME280;61999;51.514;14.614;2023-06-22T03:32:39;100294.13;;;15.13;52.59
15880;BME280;61999;51.514;14.614;2023-06-22T03:35:08;100286.88;;;15.15;52.43
15880;BME280;61999;51.514;14.614;2023-06-22T03:37:37;100287.56;;;15.17;52.45
15880;BME280;61999;51.514;14.614;2023-06-22T03:40:08;100288.97;;;15.21;52.06
15880;BME280;61999;51.514;14.614;2023-06-22T03:42:36;100285.31;;;15.22;52.74
15880;BME280;61999;51.514;14.614;2023-06-22T03:45:06;100283.34;;;15.24;52.53
15880;BME280;61999;51.514;14.614;2023-06-22T03:47:34;100285.03;;;15.25;52.47
15880;BME280;61999;51.514;14.614;2023-06-22T03:50:02;100277.75;;;15.27;52.44
15880;BME280;61999;51.514;14.614;2023-06-22T03:52:31;100281.94;;;15.30;52.40
15880;BME280;61999;51.514;14.614;2023-06-22T03:54:59;100287.91;;;15.32;52.72
15880;BME280;61999;51.514;14.614;2023-06-22T03:57:28;100281.34;;;15.36;52.49
15880;BME280;61999;51.514;14.614;2023-06-22T03:59:57;100281.03;;;15.39;53.15
15880;BME280;61999;51.514;14.614;2023-06-22T04:02:26;100277.25;;;15.42;53.08
15880;BME280;61999;51.514;14.614;2023-06-22T04:04:53;100285.59;;;15.47;52.73
15880;BME280;61999;51.514;14.614;2023-06-22T04:07:22;100281.66;;;15.51;52.93
15880;BME280;61999;51.514;14.614;2023-06-22T04:09:50;100276.75;;;15.56;53.44
15880;BME280;61999;51.514;14.614;2023-06-22T04:12:18;100266.66;;;15.59;53.12
15880;BME280;61999;51.514;14.614;2023-06-22T04:14:47;100265.22;;;15.65;53.51
15880;BME280;61999;51.514;14.614;2023-06-22T04:17:15;100263.78;;;15.71;53.57
15880;BME280;61999;51.514;14.614;2023-06-22T04:19:44;100268.63;;;15.75;53.33
15880;BME280;61999;51.514;14.614;2023-06-22T04:22:12;100266.22;;;15.82;53.67
15880;BME280;61999;51.514;14.614;2023-06-22T04:24:40;100263.81;;;15.89;53.91
15880;BME280;61999;51.514;14.614;2023-06-22T04:27:08;100262.38;;;15.94;54.18
15880;BME280;61999;51.514;14.614;2023-06-22T04:29:38;100258.13;;;16.01;54.34
15880;BME280;61999;51.514;14.614;2023-06-22T04:32:16;100267.97;;;16.09;54.71
15880;BME280;61999;51.514;14.614;2023-06-22T04:34:44;100272.69;;;16.15;54.59
15880;BME280;61999;51.514;14.614;2023-06-22T04:37:12;100272.09;;;16.21;55.15
15880;BME280;61999;51.514;14.614;2023-06-22T04:39:42;100268.66;;;16.29;55.67
15880;BME280;61999;51.514;14.614;2023-06-22T04:42:11;100270.38;;;16.38;55.58
15880;BME280;61999;51.514;14.614;2023-06-22T04:44:40;100272.44;;;16.44;55.29
15880;BME280;61999;51.514;14.614;2023-06-22T04:47:08;100279.66;;;16.52;55.39
15880;BME280;61999;51.514;14.614;2023-06-22T04:49:38;100284.06;;;16.61;56.08
15880;BME280;61999;51.514;14.614;2023-06-22T04:52:09;100290.28;;;16.70;55.80
15880;BME280;61999;51.514;14.614;2023-06-22T04:54:39;100289.47;;;16.78;56.19
15880;BME280;61999;51.514;14.614;2023-06-22T04:57:14;100288.84;;;16.84;55.86
15880;BME280;61999;51.514;14.614;2023-06-22T04:59:42;100288.25;;;16.90;56.61
15880;BME280;61999;51.514;14.614;2023-06-22T05:02:11;100291.78;;;16.99;56.50
15880;BME280;61999;51.514;14.614;2023-06-22T05:04:40;100302.63;;;17.05;56.33
15880;BME280;61999;51.514;14.614;2023-06-22T05:07:08;100308.97;;;17.12;56.53
15880;BME280;61999;51.514;14.614;2023-06-22T05:09:36;100314.88;;;17.16;56.52
15880;BME280;61999;51.514;14.614;2023-06-22T05:12:07;100304.41;;;17.23;56.51
15880;BME280;61999;51.514;14.614;2023-06-22T05:14:36;100318.09;;;17.28;55.85
15880;BME280;61999;51.514;14.614;2023-06-22T05:17:04;100328.94;;;17.34;56.57
15880;BME280;61999;51.514;14.614;2023-06-22T05:19:42;100329.47;;;17.38;56.57
15880;BME280;61999;51.514;14.614;2023-06-22T05:22:11;100314.84;;;17.42;56.30
15880;BME280;61999;51.514;14.614;2023-06-22T05:24:40;100326.81;;;17.46;56.08
15880;BME280;61999;51.514;14.614;2023-06-22T05:27:08;100336.81;;;17.44;56.92
15880;BME280;61999;51.514;14.614;2023-06-22T05:29:36;100333.19;;;17.53;56.30
15880;BME280;61999;51.514;14.614;2023-06-22T05:32:05;100335.03;;;17.61;56.26
15880;BME280;61999;51.514;14.614;2023-06-22T05:34:33;100332.22;;;17.62;56.81
15880;BME280;61999;51.514;14.614;2023-06-22T05:37:03;100337.75;;;17.69;56.81
15880;BME280;61999;51.514;14.614;2023-06-22T05:39:31;100352.59;;;17.72;56.27
15880;BME280;61999;51.514;14.614;2023-06-22T05:41:59;100355.44;;;17.78;56.52
15880;BME280;61999;51.514;14.614;2023-06-22T05:44:27;100352.16;;;17.84;55.82
15880;BME280;61999;51.514;14.614;2023-06-22T05:46:55;100354.34;;;17.89;55.60
15880;BME280;61999;51.514;14.614;2023-06-22T05:49:22;100357.84;;;17.98;55.76
15880;BME280;61999;51.514;14.614;2023-06-22T05:51:56;100360.88;;;18.03;55.41
15880;BME280;61999;51.514;14.614;2023-06-22T05:54:26;100363.88;;;18.08;55.76
15880;BME280;61999;51.514;14.614;2023-06-22T05:56:55;100370.56;;;18.12;55.25
15880;BME280;61999;51.514;14.614;2023-06-22T05:59:23;100368.56;;;18.14;55.61
15880;BME280;61999;51.514;14.614;2023-06-22T06:01:51;100368.75;;;18.21;55.37
15880;BME280;61999;51.514;14.614;2023-06-22T06:04:19;100367.75;;;18.30;55.56
15880;BME280;61999;51.514;14.614;2023-06-22T06:06:47;100370.59;;;18.37;54.89
15880;BME280;61999;51.514;14.614;2023-06-22T06:09:15;100377.28;;;18.41;54.55
15880;BME280;61999;51.514;14.614;2023-06-22T06:11:44;100385.81;;;18.44;54.74
15880;BME280;61999;51.514;14.614;2023-06-22T06:14:12;100382.16;;;18.54;54.70
15880;BME280;61999;51.514;14.614;2023-06-22T06:16:40;100378.81;;;18.60;54.56
15880;BME280;61999;51.514;14.614;2023-06-22T06:19:08;100383.50;;;18.66;54.54
15880;BME280;61999;51.514;14.614;2023-06-22T06:21:36;100378.63;;;18.61;54.05
15880;BME280;61999;51.514;14.614;2023-06-22T06:24:05;100379.31;;;18.63;53.51
15880;BME280;61999;51.514;14.614;2023-06-22T06:26:33;100377.47;;;18.56;52.21
15880;BME280;61999;51.514;14.614;2023-06-22T06:29:03;100382.16;;;18.62;52.19
15880;BME280;61999;51.514;14.614;2023-06-22T06:31:31;100379.81;;;18.75;51.85
15880;BME280;61999;51.514;14.614;2023-06-22T06:34:00;100376.13;;;18.84;51.59
15880;BME280;61999;51.514;14.614;2023-06-22T06:36:28;100374.47;;;18.83;51.44
15880;BME280;61999;51.514;14.614;2023-06-22T06:38:56;100378.44;;;18.95;51.17
15880;BME280;61999;51.514;14.614;2023-06-22T06:41:24;100370.09;;;19.07;51.25
15880;BME280;61999;51.514;14.614;2023-06-22T06:43:52;100356.59;;;19.08;51.01
15880;BME280;61999;51.514;14.614;2023-06-22T06:46:21;100347.19;;;19.21;50.36
15880;BME280;61999;51.514;14.614;2023-06-22T06:48:49;100339.34;;;19.19;49.35
15880;BME280;61999;51.514;14.614;2023-06-22T06:51:17;100334.66;;;19.21;49.31
15880;BME280;61999;51.514;14.614;2023-06-22T06:53:45;100337.31;;;19.21;48.80
15880;BME280;61999;51.514;14.614;2023-06-22T06:56:13;100332.50;;;19.16;48.60
15880;BME280;61999;51.514;14.614;2023-06-22T06:58:41;100336.63;;;19.27;48.41
15880;BME280;61999;51.514;14.614;2023-06-22T07:01:11;100320.91;;;19.32;48.37
15880;BME280;61999;51.514;14.614;2023-06-22T07:03:41;100318.53;;;19.46;48.25
15880;BME280;61999;51.514;14.614;2023-06-22T07:06:09;100316.78;;;19.53;48.05
15880;BME280;61999;51.514;14.614;2023-06-22T07:08:37;100316.44;;;19.56;48.08
15880;BME280;61999;51.514;14.614;2023-06-22T07:11:06;100291.38;;;19.57;47.30
15880;BME280;61999;51.514;14.614;2023-06-22T07:13:34;100287.19;;;19.62;47.21
15880;BME280;61999;51.514;14.614;2023-06-22T07:16:02;100289.28;;;19.75;47.24
15880;BME280;61999;51.514;14.614;2023-06-22T07:18:30;100293.56;;;19.84;46.96
15880;BME280;61999;51.514;14.614;2023-06-22T07:21:00;100297.38;;;19.90;46.99
15880;BME280;61999;51.514;14.614;2023-06-22T07:23:28;100302.16;;;20.03;46.47
15880;BME280;61999;51.514;14.614;2023-06-22T07:25:55;100301.84;;;19.98;45.98
15880;BME280;61999;51.514;14.614;2023-06-22T07:28:24;100300.06;;;20.13;46.19
15880;BME280;61999;51.514;14.614;2023-06-22T07:30:52;100291.56;;;20.33;46.69
15880;BME280;61999;51.514;14.614;2023-06-22T07:33:20;100284.88;;;20.51;46.11
15880;BME280;61999;51.514;14.614;2023-06-22T07:35:48;100288.41;;;20.67;46.10
15880;BME280;61999;51.514;14.614;2023-06-22T07:38:19;100284.09;;;20.81;45.28
15880;BME280;61999;51.514;14.614;2023-06-22T07:40:47;100292.25;;;21.02;45.11
15880;BME280;61999;51.514;14.614;2023-06-22T07:43:15;100295.75;;;21.17;45.08
15880;BME280;61999;51.514;14.614;2023-06-22T07:45:48;100294.63;;;21.27;44.23
15880;BME280;61999;51.514;14.614;2023-06-22T07:48:20;100293.59;;;21.28;43.37
15880;BME280;61999;51.514;14.614;2023-06-22T07:50:49;100291.56;;;21.30;43.68
15880;BME280;61999;51.514;14.614;2023-06-22T07:53:18;100293.63;;;21.42;43.44
15880;BME280;61999;51.514;14.614;2023-06-22T07:55:46;100299.59;;;21.30;42.41
15880;BME280;61999;51.514;14.614;2023-06-22T07:58:15;100296.38;;;21.49;42.46
15880;BME280;61999;51.514;14.614;2023-06-22T08:00:45;100299.22;;;21.62;41.83
15880;BME280;61999;51.514;14.614;2023-06-22T08:03:15;100300.88;;;21.63;42.62
15880;BME280;61999;51.514;14.614;2023-06-22T08:05:43;100296.47;;;21.92;42.91
15880;BME280;61999;51.514;14.614;2023-06-22T08:08:11;100293.78;;;21.92;42.06
15880;BME280;61999;51.514;14.614;2023-06-22T08:10:42;100297.72;;;22.18;42.48
15880;BME280;61999;51.514;14.614;2023-06-22T08:13:11;100304.06;;;22.31;41.23
15880;BME280;61999;51.514;14.614;2023-06-22T08:15:39;100301.94;;;22.48;40.86
15880;BME280;61999;51.514;14.614;2023-06-22T08:18:07;100298.09;;;22.58;40.86
15880;BME280;61999;51.514;14.614;2023-06-22T08:20:35;100294.72;;;22.49;39.72
15880;BME280;61999;51.514;14.614;2023-06-22T08:23:03;100297.34;;;22.70;39.92
15880;BME280;61999;51.514;14.614;2023-06-22T08:25:33;100303.72;;;22.97;39.60
15880;BME280;61999;51.514;14.614;2023-06-22T08:28:03;100296.31;;;23.00;37.74
15880;BME280;61999;51.514;14.614;2023-06-22T08:30:32;100291.41;;;23.16;39.42
15880;BME280;61999;51.514;14.614;2023-06-22T08:33:00;100292.78;;;23.47;39.24
15880;BME280;61999;51.514;14.614;2023-06-22T08:35:28;100290.38;;;23.59;38.58
15880;BME280;61999;51.514;14.614;2023-06-22T08:37:56;100284.19;;;23.72;38.40
15880;BME280;61999;51.514;14.614;2023-06-22T08:40:24;100287.50;;;23.74;36.53
15880;BME280;61999;51.514;14.614;2023-06-22T08:42:53;100280.47;;;23.79;35.91
15880;BME280;61999;51.514;14.614;2023-06-22T08:45:22;100283.44;;;24.04;35.54
15880;BME280;61999;51.514;14.614;2023-06-22T08:47:51;100281.38;;;24.13;34.19
15880;BME280;61999;51.514;14.614;2023-06-22T08:50:19;100270.19;;;24.29;34.73
15880;BME280;61999;51.514;14.614;2023-06-22T08:52:47;100266.44;;;24.44;31.99
15880;BME280;61999;51.514;14.614;2023-06-22T08:55:15;100267.69;;;24.74;33.06
15880;BME280;61999;51.514;14.614;2023-06-22T08:57:42;100268.63;;;25.00;31.10
15880;BME280;61999;51.514;14.614;2023-06-22T09:00:12;100273.81;;;25.02;30.72
15880;BME280;61999;51.514;14.614;2023-06-22T09:02:46;100279.06;;;25.41;30.79
15880;BME280;61999;51.514;14.614;2023-06-22T09:05:15;100266.44;;;25.74;31.74
15880;BME280;61999;51.514;14.614;2023-06-22T09:07:43;100273.75;;;25.98;30.33
15880;BME280;61999;51.514;14.614;2023-06-22T09:10:11;100272.53;;;25.94;29.72
15880;BME280;61999;51.514;14.614;2023-06-22T09:12:39;100275.81;;;26.03;30.14
15880;BME280;61999;51.514;14.614;2023-06-22T09:15:09;100271.47;;;26.27;30.85
15880;BME280;61999;51.514;14.614;2023-06-22T09:17:40;100271.78;;;26.37;30.86
15880;BME280;61999;51.514;14.614;2023-06-22T09:20:10;100270.47;;;26.46;30.68
15880;BME280;61999;51.514;14.614;2023-06-22T09:22:38;100259.06;;;26.63;30.18
15880;BME280;61999;51.514;14.614;2023-06-22T09:25:08;100256.25;;;26.58;30.69
15880;BME280;61999;51.514;14.614;2023-06-22T09:27:36;100255.06;;;26.72;30.27
15880;BME280;61999;51.514;14.614;2023-06-22T09:30:05;100251.44;;;26.78;29.85
15880;BME280;61999;51.514;14.614;2023-06-22T09:32:34;100248.13;;;26.76;30.00
15880;BME280;61999;51.514;14.614;2023-06-22T09:35:05;100245.56;;;26.81;29.71
15880;BME280;61999;51.514;14.614;2023-06-22T09:37:35;100249.31;;;27.17;29.44
15880;BME280;61999;51.514;14.614;2023-06-22T09:40:04;100245.72;;;27.05;28.21
15880;BME280;61999;51.514;14.614;2023-06-22T09:42:35;100249.03;;;27.07;28.39
15880;BME280;61999;51.514;14.614;2023-06-22T09:45:04;100250.41;;;27.46;28.76
15880;BME280;61999;51.514;14.614;2023-06-22T09:47:33;100246.13;;;27.69;28.73
15880;BME280;61999;51.514;14.614;2023-06-22T09:50:01;100242.91;;;27.60;27.72
15880;BME280;61999;51.514;14.614;2023-06-22T09:52:29;100244.34;;;28.16;28.12
15880;BME280;61999;51.514;14.614;2023-06-22T09:55:02;100237.28;;;28.39;27.88
15880;BME280;61999;51.514;14.614;2023-06-22T09:57:30;100243.16;;;28.71;27.16
15880;BME280;61999;51.514;14.614;2023-06-22T09:59:58;100241.88;;;29.14;25.75
15880;BME280;61999;51.514;14.614;2023-06-22T10:02:26;100248.22;;;28.91;26.51
15880;BME280;61999;51.514;14.614;2023-06-22T10:04:54;100235.47;;;28.80;26.12
15880;BME280;61999;51.514;14.614;2023-06-22T10:07:22;100236.88;;;28.94;26.63
15880;BME280;61999;51.514;14.614;2023-06-22T10:09:50;100238.84;;;29.39;24.95
15880;BME280;61999;51.514;14.614;2023-06-22T10:12:20;100234.94;;;29.63;25.57
15880;BME280;61999;51.514;14.614;2023-06-22T10:14:48;100236.47;;;29.88;25.86
15880;BME280;61999;51.514;14.614;2023-06-22T10:17:15;100228.81;;;29.85;25.25
15880;BME280;61999;51.514;14.614;2023-06-22T10:19:43;100237.94;;;29.79;23.53
15880;BME280;61999;51.514;14.614;2023-06-22T10:22:11;100226.25;;;29.78;24.15
15880;BME280;61999;51.514;14.614;2023-06-22T10:24:39;100224.66;;;30.33;23.77
15880;BME280;61999;51.514;14.614;2023-06-22T10:27:11;100231.44;;;29.97;24.30
15880;BME280;61999;51.514;14.614;2023-06-22T10:29:41;100230.41;;;29.69;24.12
15880;BME280;61999;51.514;14.614;2023-06-22T10:32:09;100226.41;;;30.05;24.21
15880;BME280;61999;51.514;14.614;2023-06-22T10:34:37;100223.47;;;30.24;24.47
15880;BME280;61999;51.514;14.614;2023-06-22T10:37:06;100230.75;;;30.40;24.34
15880;BME280;61999;51.514;14.614;2023-06-22T10:39:34;100228.06;;;30.06;24.14
15880;BME280;61999;51.514;14.614;2023-06-22T10:42:02;100220.13;;;30.05;24.74
15880;BME280;61999;51.514;14.614;2023-06-22T10:44:30;100229.53;;;30.31;24.04
15880;BME280;61999;51.514;14.614;2023-06-22T10:46:59;100224.97;;;29.24;24.75
15880;BME280;61999;51.514;14.614;2023-06-22T10:49:27;100214.16;;;29.40;24.41
15880;BME280;61999;51.514;14.614;2023-06-22T10:51:55;100214.19;;;29.74;24.68
15880;BME280;61999;51.514;14.614;2023-06-22T10:54:23;100210.00;;;30.00;23.30
15880;BME280;61999;51.514;14.614;2023-06-22T10:56:51;100214.72;;;30.22;23.75
15880;BME280;61999;51.514;14.614;2023-06-22T10:59:19;100213.34;;;30.41;23.59
15880;BME280;61999;51.514;14.614;2023-06-22T11:01:48;100207.44;;;30.11;23.31
15880;BME280;61999;51.514;14.614;2023-06-22T11:04:17;100204.63;;;29.72;23.61
15880;BME280;61999;51.514;14.614;2023-06-22T11:06:45;100208.06;;;30.18;23.72
15880;BME280;61999;51.514;14.614;2023-06-22T11:09:13;100202.31;;;30.31;23.13
15880;BME280;61999;51.514;14.614;2023-06-22T11:11:51;100200.03;;;30.23;23.40
15880;BME280;61999;51.514;14.614;2023-06-22T11:14:20;100192.75;;;30.12;23.12
15880;BME280;61999;51.514;14.614;2023-06-22T11:16:48;100179.63;;;30.42;23.18
15880;BME280;61999;51.514;14.614;2023-06-22T11:19:18;100184.00;;;30.87;22.87
15880;BME280;61999;51.514;14.614;2023-06-22T11:21:46;100183.28;;;30.97;22.43
15880;BME280;61999;51.514;14.614;2023-06-22T11:24:14;100183.59;;;31.01;22.42
15880;BME280;61999;51.514;14.614;2023-06-22T11:26:43;100178.91;;;31.82;22.24
15880;BME280;61999;51.514;14.614;2023-06-22T11:29:11;100173.44;;;32.20;21.87
15880;BME280;61999;51.514;14.614;2023-06-22T11:31:42;100171.13;;;32.39;21.63
15880;BME280;61999;51.514;14.614;2023-06-22T11:34:10;100169.69;;;32.31;20.88
15880;BME280;61999;51.514;14.614;2023-06-22T11:36:40;100169.03;;;32.66;20.65
15880;BME280;61999;51.514;14.614;2023-06-22T11:39:08;100171.41;;;33.21;19.70
15880;BME280;61999;51.514;14.614;2023-06-22T11:41:38;100166.50;;;33.33;19.56
15880;BME280;61999;51.514;14.614;2023-06-22T11:44:06;100162.16;;;33.68;19.49
15880;BME280;61999;51.514;14.614;2023-06-22T11:46:34;100146.63;;;34.48;19.04
15880;BME280;61999;51.514;14.614;2023-06-22T11:49:02;100146.81;;;35.17;18.75
15880;BME280;61999;51.514;14.614;2023-06-22T11:51:30;100143.47;;;35.83;17.62
15880;BME280;61999;51.514;14.614;2023-06-22T11:54:00;100140.50;;;36.52;17.25
15880;BME280;61999;51.514;14.614;2023-06-22T11:56:29;100142.13;;;37.29;16.34
15880;BME280;61999;51.514;14.614;2023-06-22T11:58:57;100151.06;;;37.53;16.42
15880;BME280;61999;51.514;14.614;2023-06-22T12:01:24;100141.88;;;38.32;16.03
15880;BME280;61999;51.514;14.614;2023-06-22T12:03:52;100141.53;;;38.47;15.35
15880;BME280;61999;51.514;14.614;2023-06-22T12:06:20;100132.38;;;38.88;15.28
15880;BME280;61999;51.514;14.614;2023-06-22T12:08:48;100134.72;;;38.81;14.97
15880;BME280;61999;51.514;14.614;2023-06-22T12:11:18;100145.38;;;38.74;14.91
15880;BME280;61999;51.514;14.614;2023-06-22T12:13:46;100133.41;;;38.42;14.87
15880;BME280;61999;51.514;14.614;2023-06-22T12:16:14;100127.84;;;37.59;14.66
15880;BME280;61999;51.514;14.614;2023-06-22T12:18:42;100124.13;;;37.36;14.85
15880;BME280;61999;51.514;14.614;2023-06-22T12:21:10;100135.88;;;38.02;14.44
15880;BME280;61999;51.514;14.614;2023-06-22T12:23:37;100125.84;;;38.06;14.50
15880;BME280;61999;51.514;14.614;2023-06-22T12:26:05;100127.19;;;38.09;15.22
15880;BME280;61999;51.514;14.614;2023-06-22T12:28:35;100112.84;;;38.62;15.05
15880;BME280;61999;51.514;14.614;2023-06-22T12:31:03;100119.03;;;39.27;14.73
15880;BME280;61999;51.514;14.614;2023-06-22T12:33:31;100122.81;;;39.39;14.75
15880;BME280;61999;51.514;14.614;2023-06-22T12:35:59;100111.78;;;39.39;14.33
15880;BME280;61999;51.514;14.614;2023-06-22T12:38:27;100100.28;;;38.92;14.12
15880;BME280;61999;51.514;14.614;2023-06-22T12:40:55;100093.34;;;38.59;14.21
15880;BME280;61999;51.514;14.614;2023-06-22T12:43:23;100106.69;;;37.88;15.42
15880;BME280;61999;51.514;14.614;2023-06-22T12:45:52;100098.97;;;37.43;15.14
15880;BME280;61999;51.514;14.614;2023-06-22T12:48:21;100089.47;;;37.03;15.71
15880;BME280;61999;51.514;14.614;2023-06-22T12:50:49;100093.59;;;37.52;15.58